createdAt,value
2019-05-13T00:01:43.491Z,2.33
2019-05-13T00:04:13.943Z,2.40
2019-05-13T00:06:51.387Z,2.60
2019-05-13T00:09:13.956Z,3.10
2019-05-13T00:11:43.698Z,2.80
2019-05-13T00:14:13.438Z,2.83
2019-05-13T00:16:41.417Z,4.27
2019-05-13T00:19:09.605Z,3.40
2019-05-13T00:21:37.825Z,2.63
2019-05-13T00:24:06.087Z,2.90
2019-05-13T00:29:48.772Z,2.60
2019-05-13T00:32:16.973Z,2.43
2019-05-13T00:34:45.163Z,2.50
2019-05-13T00:37:14.652Z,3.40
2019-05-13T00:39:44.218Z,2.50
2019-05-13T00:42:14.283Z,2.60
2019-05-13T00:44:44.354Z,2.83
2019-05-13T00:47:13.223Z,2.70
2019-05-13T00:49:43.571Z,2.93
2019-05-13T00:52:11.454Z,3.20
2019-05-13T00:54:39.634Z,3.67
2019-05-13T00:57:07.832Z,2.43
2019-05-13T00:59:36.018Z,2.90
2019-05-13T01:02:04.260Z,2.67
2019-05-13T01:04:33.899Z,2.90
2019-05-13T01:07:04.381Z,2.73
2019-05-13T01:09:34.248Z,2.90
2019-05-13T01:12:04.248Z,3.50
2019-05-13T01:14:34.181Z,2.67
2019-05-13T01:17:03.837Z,2.90
2019-05-13T01:19:33.990Z,2.77
2019-05-13T01:22:03.400Z,3.00
2019-05-13T01:24:33.652Z,2.77
2019-05-13T01:27:03.835Z,3.20
2019-05-13T01:29:31.393Z,3.33
2019-05-13T01:31:59.570Z,2.80
2019-05-13T01:34:27.775Z,3.00
2019-05-13T01:36:55.957Z,2.87
2019-05-13T01:39:24.456Z,3.27
2019-05-13T01:41:54.106Z,2.90
2019-05-13T01:44:24.410Z,2.90
2019-05-13T01:46:53.786Z,2.97
2019-05-13T01:49:23.976Z,2.80
2019-05-13T01:51:53.980Z,3.30
2019-05-13T01:54:21.827Z,3.13
2019-05-13T01:56:50.006Z,2.97
2019-05-13T01:59:18.322Z,2.87
2019-05-13T02:01:46.510Z,3.40
2019-05-13T02:04:14.701Z,3.17
2019-05-13T02:06:44.292Z,3.10
2019-05-13T02:09:14.157Z,3.13
2019-05-13T02:11:44.562Z,3.03
2019-05-13T02:14:13.279Z,3.17
2019-05-13T02:16:44.380Z,3.23
2019-05-13T02:19:14.120Z,2.90
2019-05-13T02:21:43.738Z,2.80
2019-05-13T02:24:11.289Z,2.80
2019-05-13T02:26:39.470Z,3.13
2019-05-13T02:29:07.650Z,2.73
2019-05-13T02:31:46.016Z,3.03
2019-05-13T02:34:06.270Z,2.83
2019-05-13T02:36:34.485Z,3.00
2019-05-13T02:39:04.317Z,2.50
2019-05-13T02:41:34.206Z,2.97
2019-05-13T02:44:03.784Z,2.73
2019-05-13T02:46:33.827Z,2.80
2019-05-13T02:49:03.207Z,3.40
2019-05-13T02:51:32.835Z,3.00
2019-05-13T02:54:03.485Z,2.90
2019-05-13T02:56:33.067Z,3.30
2019-05-13T02:59:03.982Z,2.77
2019-05-13T03:01:33.237Z,2.53
2019-05-13T03:04:03.196Z,2.87
2019-05-13T03:06:33.190Z,2.93
2019-05-13T03:09:03.192Z,3.00
2019-05-13T03:11:33.144Z,2.97
2019-05-13T03:14:03.774Z,3.23
2019-05-13T03:16:38.408Z,3.13
2019-05-13T03:19:06.798Z,2.80
2019-05-13T03:21:34.989Z,2.77
2019-05-13T03:24:03.854Z,3.40
2019-05-13T03:26:32.332Z,3.47
2019-05-13T03:29:02.752Z,3.23
2019-05-13T03:31:35.843Z,4.20
2019-05-13T03:34:05.611Z,4.30
2019-05-13T03:36:35.551Z,4.20
2019-05-13T03:39:07.010Z,3.83
2019-05-13T03:41:32.959Z,3.43
2019-05-13T03:44:02.982Z,3.73
2019-05-13T03:46:33.449Z,4.10
2019-05-13T03:49:02.770Z,3.97
2019-05-13T03:51:32.661Z,4.10
2019-05-13T03:54:03.009Z,4.17
2019-05-13T03:56:32.838Z,4.80
2019-05-13T03:59:02.669Z,3.97
2019-05-13T04:01:32.536Z,4.83
2019-05-13T04:04:03.278Z,5.00
2019-05-13T04:06:32.349Z,5.13
2019-05-13T04:09:21.065Z,4.63
2019-05-13T04:11:33.028Z,4.63
2019-05-13T04:14:03.170Z,5.43
2019-05-13T04:16:32.335Z,6.10
2019-05-13T04:19:02.612Z,5.57
2019-05-13T04:21:33.874Z,4.83
2019-05-13T04:24:03.568Z,4.47
2019-05-13T04:26:32.303Z,3.40
2019-05-13T04:29:03.141Z,3.13
2019-05-13T04:31:33.289Z,2.73
2019-05-13T04:34:02.222Z,2.80
2019-05-13T04:36:32.037Z,3.17
2019-05-13T04:39:03.274Z,2.97
2019-05-13T04:41:32.985Z,3.13
2019-05-13T04:44:02.673Z,2.70
2019-05-13T04:46:32.772Z,2.87
2019-05-13T04:49:02.165Z,2.67
2019-05-13T04:51:32.872Z,2.67
2019-05-13T04:54:02.847Z,2.60
2019-05-13T04:56:33.021Z,2.60
2019-05-13T04:59:03.026Z,2.73
2019-05-13T05:01:57.871Z,2.93
2019-05-13T05:04:37.695Z,2.70
2019-05-13T05:07:07.450Z,2.30
2019-05-13T05:10:15.840Z,2.03
2019-05-13T05:12:34.407Z,1.70
2019-05-13T05:15:13.368Z,1.60
2019-05-13T05:17:43.199Z,1.77
2019-05-13T05:20:23.116Z,1.70
2019-05-13T05:22:53.054Z,1.67
2019-05-13T05:25:41.674Z,1.47
2019-05-13T05:28:14.408Z,1.83
2019-05-13T05:30:51.900Z,1.63
2019-05-13T05:33:24.101Z,1.70
2019-05-13T05:35:56.935Z,1.70
2019-05-13T05:38:26.663Z,2.27
2019-05-13T05:40:56.886Z,1.80
2019-05-13T05:43:26.661Z,1.77
2019-05-13T05:45:54.857Z,1.83
2019-05-13T05:48:24.039Z,2.00
2019-05-13T05:50:53.778Z,1.80
2019-05-13T05:53:23.692Z,1.60
2019-05-13T05:55:52.268Z,1.53
2019-05-13T05:58:22.897Z,1.47
2019-05-13T06:00:52.051Z,1.70
2019-05-13T06:03:22.937Z,2.00
2019-05-13T06:05:51.724Z,2.33
2019-05-13T06:08:22.078Z,1.90
2019-05-13T06:10:53.666Z,1.77
2019-05-13T06:13:21.464Z,1.67
2019-05-13T06:15:51.377Z,1.50
2019-05-13T06:18:22.004Z,1.60
2019-05-13T06:20:51.223Z,1.60
2019-05-13T06:23:21.983Z,1.60
2019-05-13T06:25:52.407Z,1.77
2019-05-13T06:28:21.666Z,1.90
2019-05-13T06:30:51.839Z,1.73
2019-05-13T06:33:21.194Z,1.80
2019-05-13T06:35:51.934Z,1.70
2019-05-13T06:38:22.330Z,1.73
2019-05-13T06:41:00.513Z,1.60
2019-05-13T06:43:21.093Z,1.73
2019-05-13T06:45:51.392Z,1.80
2019-05-13T06:48:19.415Z,1.70
2019-05-13T06:50:47.615Z,1.83
2019-05-13T06:53:15.819Z,1.90
2019-05-13T06:55:44.018Z,1.73
2019-05-13T06:58:12.202Z,1.83
2019-05-13T07:00:42.701Z,1.70
2019-05-13T07:03:12.704Z,2.03
2019-05-13T07:05:42.374Z,1.53
2019-05-13T07:08:12.016Z,1.93
2019-05-13T07:10:41.468Z,1.83
2019-05-13T07:13:11.469Z,1.90
2019-05-13T07:15:41.722Z,1.70
2019-05-13T07:18:11.684Z,1.93
2019-05-13T07:20:42.390Z,1.70
2019-05-13T07:23:12.102Z,1.87
2019-05-13T07:25:42.014Z,1.77
2019-05-13T07:28:12.431Z,1.50
2019-05-13T07:30:42.486Z,2.23
2019-05-13T07:33:12.572Z,1.43
2019-05-13T07:35:44.458Z,2.00
2019-05-13T07:38:11.664Z,1.60
2019-05-13T07:40:41.799Z,1.60
2019-05-13T07:43:12.360Z,1.77
2019-05-13T07:45:42.373Z,2.03
2019-05-13T07:48:20.736Z,2.20
2019-05-13T07:50:53.071Z,2.17
2019-05-13T07:53:12.612Z,1.83
2019-05-13T07:55:42.053Z,1.83
2019-05-13T07:58:11.488Z,1.90
2019-05-13T08:00:41.948Z,1.97
2019-05-13T08:03:12.033Z,1.77
2019-05-13T08:05:41.682Z,1.53
2019-05-13T08:08:11.454Z,1.80
2019-05-13T08:10:41.348Z,2.30
2019-05-13T08:13:11.665Z,1.47
2019-05-13T08:15:41.820Z,1.60
2019-05-13T08:18:08.971Z,1.57
2019-05-13T08:20:37.227Z,2.30
2019-05-13T08:23:05.402Z,1.50
2019-05-13T08:25:33.606Z,1.60
2019-05-13T08:28:02.205Z,2.27
2019-05-13T08:30:31.829Z,1.60
2019-05-13T08:33:01.833Z,1.90
2019-05-13T08:35:31.452Z,1.80
2019-05-13T08:38:01.371Z,2.17
2019-05-13T08:40:31.811Z,1.80
2019-05-13T08:43:01.384Z,1.97
2019-05-13T08:45:31.509Z,2.00
2019-05-13T08:48:02.029Z,1.70
2019-05-13T08:50:32.210Z,1.87
2019-05-13T08:53:01.647Z,2.00
2019-05-13T08:55:32.036Z,1.80
2019-05-13T08:58:01.623Z,1.57
2019-05-13T09:00:45.933Z,1.70
2019-05-13T09:03:14.120Z,2.23
2019-05-13T09:05:42.393Z,1.77
2019-05-13T09:08:11.507Z,1.77
2019-05-13T09:10:41.372Z,2.03
2019-05-13T09:13:12.062Z,2.00
2019-05-13T09:15:42.241Z,1.73
2019-05-13T09:18:11.467Z,1.77
2019-05-13T09:20:41.594Z,1.97
2019-05-13T09:23:11.461Z,1.63
2019-05-13T09:25:41.575Z,1.50
2019-05-13T09:28:09.636Z,1.30
2019-05-13T09:30:37.827Z,1.60
2019-05-13T09:33:06.038Z,1.50
2019-05-13T09:35:34.251Z,1.67
2019-05-13T09:38:03.304Z,1.30
2019-05-13T09:40:31.875Z,1.50
2019-05-13T09:43:02.381Z,1.50
2019-05-13T09:45:32.112Z,0.90
2019-05-13T09:48:01.572Z,1.50
2019-05-13T09:50:35.844Z,1.00
2019-05-13T09:53:02.551Z,1.30
2019-05-13T09:55:32.473Z,1.30
2019-05-13T09:58:02.242Z,1.70
2019-05-13T10:00:32.082Z,1.10
2019-05-13T10:02:59.285Z,1.40
2019-05-13T10:05:27.490Z,1.50
2019-05-13T10:07:55.694Z,1.40
2019-05-13T10:10:23.889Z,1.33
2019-05-13T10:13:08.282Z,1.37
2019-05-13T10:15:22.185Z,1.20
2019-05-13T10:17:52.634Z,1.10
2019-05-13T10:20:21.782Z,1.40
2019-05-13T10:22:51.995Z,1.70
2019-05-13T10:25:22.248Z,1.40
2019-05-13T10:27:50.049Z,1.27
2019-05-13T10:30:18.248Z,2.27
2019-05-13T10:32:46.496Z,1.40
2019-05-13T10:35:14.947Z,1.60
2019-05-13T10:37:44.014Z,1.70
2019-05-13T10:40:12.377Z,1.50
2019-05-13T10:42:43.145Z,1.60
2019-05-13T10:45:33.394Z,1.50
2019-05-13T10:48:02.844Z,1.30
2019-05-13T10:50:31.749Z,1.80
2019-05-13T10:53:02.657Z,1.83
2019-05-13T10:55:32.480Z,1.50
2019-05-13T10:58:02.485Z,1.43
2019-05-13T11:00:44.586Z,1.90
2019-05-13T11:03:13.099Z,1.73
2019-05-13T11:05:44.590Z,2.03
2019-05-13T11:08:11.170Z,1.50
2019-05-13T11:10:41.962Z,1.70
2019-05-13T11:13:10.748Z,1.57
2019-05-13T11:15:40.517Z,1.20
2019-05-13T11:18:14.265Z,1.67
2019-05-13T11:20:41.477Z,2.13
2019-05-13T11:23:11.891Z,1.37
2019-05-13T11:25:41.196Z,2.27
2019-05-13T11:28:08.955Z,1.80
2019-05-13T11:30:37.146Z,1.53
2019-05-13T11:33:09.904Z,1.50
2019-05-13T11:35:35.280Z,1.47
2019-05-13T11:38:03.734Z,1.40
2019-05-13T11:40:32.088Z,1.40
2019-05-13T11:43:01.830Z,1.63
2019-05-13T11:45:31.623Z,1.30
2019-05-13T11:48:02.335Z,1.60
2019-05-13T11:50:29.854Z,1.50
2019-05-13T11:52:58.051Z,1.40
2019-05-13T11:55:26.228Z,1.37
2019-05-13T11:57:54.430Z,1.60
2019-05-13T12:00:24.192Z,1.43
2019-05-13T12:02:54.660Z,1.70
2019-05-13T12:05:22.739Z,1.67
2019-05-13T12:07:53.474Z,1.40
2019-05-13T12:10:22.873Z,1.73
2019-05-13T12:12:51.111Z,1.47
2019-05-13T12:15:28.854Z,1.60
2019-05-13T12:17:49.194Z,1.67
2019-05-13T12:20:17.391Z,1.47
2019-05-13T12:22:45.928Z,1.50
2019-05-13T12:25:14.358Z,1.33
2019-05-13T12:27:42.579Z,1.80
2019-05-13T12:30:12.488Z,1.40
2019-05-13T12:32:43.709Z,2.10
2019-05-13T12:35:13.357Z,1.60
2019-05-13T12:37:42.039Z,1.53
2019-05-13T12:40:10.552Z,1.23
2019-05-13T12:42:44.382Z,1.70
2019-05-13T12:45:10.945Z,1.30
2019-05-13T12:47:38.893Z,1.10
2019-05-13T12:50:07.245Z,1.37
2019-05-13T12:52:35.723Z,1.40
2019-05-13T12:55:04.615Z,1.97
2019-05-13T12:57:32.841Z,1.40
2019-05-13T13:00:02.401Z,1.07
2019-05-13T13:02:32.568Z,2.10
2019-05-13T13:05:13.540Z,1.20
2019-05-13T13:07:37.482Z,1.30
2019-05-13T13:10:00.832Z,1.63
2019-05-13T13:12:36.879Z,1.43
2019-05-13T13:14:58.911Z,1.90
2019-05-13T13:17:27.117Z,1.30
2019-05-13T13:20:04.636Z,1.60
2019-05-13T13:22:25.677Z,1.40
2019-05-13T13:24:57.333Z,1.40
2019-05-13T13:27:47.046Z,2.00
2019-05-13T13:30:02.695Z,1.40
2019-05-13T13:32:24.615Z,1.40
2019-05-13T13:34:54.621Z,1.60
2019-05-13T13:37:22.969Z,1.40
2019-05-13T13:39:55.156Z,1.20
2019-05-13T13:42:21.073Z,1.23
2019-05-13T13:44:53.370Z,1.10
2019-05-13T13:47:19.133Z,1.60
2019-05-13T13:49:47.331Z,1.70
2019-05-13T13:52:16.396Z,1.20
2019-05-13T13:54:44.790Z,1.60
2019-05-13T13:57:13.732Z,1.23
2019-05-13T14:00:14.159Z,1.20
2019-05-13T14:02:13.557Z,1.40
2019-05-13T14:04:42.985Z,1.43
2019-05-13T14:07:34.794Z,1.67
2019-05-13T14:09:41.751Z,1.33
2019-05-13T14:12:11.385Z,1.63
2019-05-13T14:14:41.454Z,1.47
2019-05-13T14:17:11.361Z,1.27
2019-05-13T14:19:41.968Z,1.60
2019-05-13T14:22:12.348Z,1.80
2019-05-13T14:24:42.318Z,1.30
2019-05-13T14:27:11.870Z,1.43
2019-05-13T14:29:45.976Z,1.53
2019-05-13T14:32:09.603Z,1.30
2019-05-13T14:34:37.822Z,1.37
2019-05-13T14:37:06.019Z,1.43
2019-05-13T14:39:36.135Z,1.40
2019-05-13T14:42:04.166Z,1.70
2019-05-13T14:44:32.600Z,1.67
2019-05-13T14:47:01.621Z,0.97
2019-05-13T14:49:31.694Z,0.90
2019-05-13T14:52:01.275Z,1.30
2019-05-13T14:54:31.374Z,1.20
2019-05-13T14:57:02.163Z,1.10
2019-05-13T14:59:31.473Z,1.40
2019-05-13T15:02:01.369Z,1.20
2019-05-13T15:04:32.388Z,1.23
2019-05-13T15:06:59.776Z,1.23
2019-05-13T15:09:28.379Z,1.20
2019-05-13T15:11:56.574Z,1.10
2019-05-13T15:14:24.749Z,1.30
2019-05-13T15:17:02.781Z,1.17
2019-05-13T15:19:22.825Z,1.93
2019-05-13T15:21:52.097Z,1.23
2019-05-13T15:24:21.321Z,1.70
2019-05-13T15:26:51.555Z,1.53
2019-05-13T15:29:22.114Z,1.30
2019-05-13T15:31:51.436Z,1.70
2019-05-13T15:34:19.337Z,1.70
2019-05-13T15:36:47.525Z,1.43
2019-05-13T15:39:15.776Z,1.97
2019-05-13T15:41:43.981Z,1.30
2019-05-13T15:44:12.265Z,1.33
2019-05-13T15:46:41.756Z,1.87
2019-05-13T15:49:12.359Z,1.70
2019-05-13T15:51:42.185Z,1.60
2019-05-13T15:54:14.665Z,1.30
2019-05-13T15:56:39.861Z,1.20
2019-05-13T15:59:08.932Z,1.20
2019-05-13T16:01:37.321Z,1.10
2019-05-13T16:04:05.530Z,1.20
2019-05-13T16:06:33.707Z,1.17
2019-05-13T16:09:02.724Z,1.30
2019-05-13T16:11:32.573Z,1.37
2019-05-13T16:14:02.072Z,1.20
2019-05-13T16:16:32.278Z,1.30
2019-05-13T16:19:00.658Z,1.40
2019-05-13T16:21:29.013Z,1.30
2019-05-13T16:23:57.242Z,1.50
2019-05-13T16:26:27.420Z,1.60
2019-05-13T16:28:55.461Z,1.13
2019-05-13T16:31:23.861Z,1.37
2019-05-13T16:33:52.312Z,1.43
2019-05-13T16:36:22.165Z,1.73
2019-05-13T16:38:50.553Z,1.23
2019-05-13T16:41:18.934Z,2.53
2019-05-13T16:43:47.110Z,1.37
2019-05-13T16:46:15.297Z,1.53
2019-05-13T16:48:43.738Z,1.00
2019-05-13T16:51:12.697Z,1.57
2019-05-13T16:53:42.125Z,1.77
2019-05-13T16:56:25.362Z,2.27
2019-05-13T16:58:41.706Z,1.50
2019-05-13T17:01:11.750Z,1.80
2019-05-13T17:03:41.489Z,1.20
2019-05-13T17:06:09.907Z,1.67
2019-05-13T17:08:38.178Z,1.73
2019-05-13T17:11:06.379Z,2.03
2019-05-13T17:13:35.813Z,1.50
2019-05-13T17:16:04.403Z,1.57
2019-05-13T17:18:32.710Z,1.10
2019-05-13T17:21:01.445Z,1.30
2019-05-13T17:23:29.813Z,1.13
2019-05-13T17:25:58.017Z,1.17
2019-05-13T17:28:26.209Z,1.73
2019-05-13T17:30:54.519Z,1.33
2019-05-13T17:33:23.164Z,1.10
2019-05-13T17:35:51.589Z,1.10
2019-05-13T17:38:21.814Z,1.67
2019-05-13T17:40:50.184Z,1.60
2019-05-13T17:43:21.341Z,1.33
2019-05-13T17:45:49.610Z,1.20
2019-05-13T17:48:26.793Z,1.53
2019-05-13T17:50:47.735Z,1.40
2019-05-13T17:53:15.939Z,1.30
2019-05-13T17:55:44.129Z,1.20
2019-05-13T17:58:12.566Z,1.97
2019-05-13T18:00:41.536Z,1.27
2019-05-13T18:03:11.405Z,1.50
2019-05-13T18:05:41.912Z,1.00
2019-05-13T18:08:11.312Z,1.20
2019-05-13T18:10:41.835Z,1.30
2019-05-13T18:13:09.561Z,1.00
2019-05-13T18:15:37.792Z,1.13
2019-05-13T18:18:06.069Z,1.40
2019-05-13T18:20:34.298Z,1.13
2019-05-13T18:23:02.687Z,1.40
2019-05-13T18:25:31.676Z,1.00
2019-05-13T18:28:01.528Z,0.90
2019-05-13T18:30:31.748Z,1.00
2019-05-13T18:33:01.192Z,1.40
2019-05-13T18:35:31.522Z,1.13
2019-05-13T18:38:01.320Z,2.13
2019-05-13T18:40:31.515Z,1.40
2019-05-13T18:43:01.725Z,1.37
2019-05-13T18:45:29.358Z,1.20
2019-05-13T18:47:57.550Z,1.10
2019-05-13T18:50:25.731Z,1.40
2019-05-13T18:52:55.634Z,1.37
2019-05-13T18:55:23.809Z,1.30
2019-05-13T18:57:52.312Z,1.10
2019-05-13T19:00:21.651Z,1.17
2019-05-13T19:02:49.954Z,1.97
2019-05-13T19:05:18.259Z,2.37
2019-05-13T19:07:46.481Z,1.13
2019-05-13T19:10:14.754Z,1.37
2019-05-13T19:12:42.966Z,1.30
2019-05-13T19:15:11.481Z,1.67
2019-05-13T19:17:41.561Z,1.10
2019-05-13T19:20:11.575Z,1.43
2019-05-13T19:22:41.276Z,1.00
2019-05-13T19:25:11.960Z,1.20
2019-05-13T19:27:41.320Z,1.30
2019-05-13T19:30:11.906Z,1.33
2019-05-13T19:32:41.690Z,1.60
2019-05-13T19:35:11.760Z,1.30
2019-05-13T19:37:42.214Z,1.33
2019-05-13T19:40:09.639Z,1.20
2019-05-13T19:42:37.835Z,1.50
2019-05-13T19:45:06.185Z,1.40
2019-05-13T19:47:34.449Z,1.40
2019-05-13T19:50:03.012Z,1.20
2019-05-13T19:52:32.069Z,1.60
2019-05-13T19:55:01.694Z,1.30
2019-05-13T19:57:31.752Z,1.37
2019-05-13T20:00:01.365Z,1.43
2019-05-13T20:02:31.572Z,1.97
2019-05-13T20:05:01.182Z,3.43
2019-05-13T20:07:31.694Z,1.50
2019-05-13T20:09:59.391Z,1.50
2019-05-13T20:12:27.597Z,1.50
2019-05-13T20:14:55.855Z,1.57
2019-05-13T20:17:24.077Z,1.90
2019-05-13T20:19:53.653Z,1.60
2019-05-13T20:22:21.929Z,1.40
2019-05-13T20:24:51.455Z,1.57
2019-05-13T20:27:20.987Z,1.80
2019-05-13T20:29:51.203Z,1.50
2019-05-13T20:32:19.153Z,1.50
2019-05-13T20:34:47.539Z,1.67
2019-05-13T20:37:15.725Z,1.63
2019-05-13T20:39:43.909Z,1.50
2019-05-13T20:42:12.625Z,1.50
2019-05-13T20:44:41.981Z,1.50
2019-05-13T20:47:10.284Z,1.87
2019-05-13T20:49:38.561Z,1.80
2019-05-13T20:52:06.747Z,2.77
2019-05-13T20:54:34.954Z,1.50
2019-05-13T20:57:03.178Z,1.70
2019-05-13T20:59:32.304Z,1.63
2019-05-13T21:02:02.372Z,1.37
2019-05-13T21:04:32.217Z,1.20
2019-05-13T21:07:02.141Z,1.27
2019-05-13T21:09:31.666Z,1.47
2019-05-13T21:12:01.744Z,1.40
2019-05-13T21:14:32.020Z,1.53
2019-05-13T21:17:01.395Z,1.50
2019-05-13T21:19:39.226Z,1.40
2019-05-13T21:21:59.942Z,1.83
2019-05-13T21:24:28.191Z,2.03
2019-05-13T21:26:56.385Z,2.13
2019-05-13T21:29:24.572Z,1.73
2019-05-13T21:31:53.042Z,1.93
2019-05-13T21:34:21.336Z,3.77
2019-05-13T21:36:51.594Z,1.80
2019-05-13T21:39:21.317Z,1.90
2019-05-13T21:41:51.769Z,3.00
2019-05-13T21:44:19.295Z,3.30
2019-05-13T21:46:47.473Z,3.13
2019-05-13T21:49:17.367Z,2.80
2019-05-13T21:51:45.551Z,2.80
2019-05-13T21:54:13.744Z,3.40
2019-05-13T21:56:42.798Z,2.80
2019-05-13T21:59:11.130Z,2.47
2019-05-13T22:01:42.056Z,3.23
2019-05-13T22:04:09.227Z,2.67
2019-05-13T22:06:37.414Z,2.60
2019-05-13T22:09:08.158Z,2.57
2019-05-13T22:11:36.439Z,2.03
2019-05-13T22:14:04.691Z,2.07
2019-05-13T22:16:32.961Z,2.43
2019-05-13T22:19:01.574Z,2.67
2019-05-13T22:21:31.575Z,2.17
2019-05-13T22:24:02.108Z,2.57
2019-05-13T22:26:31.166Z,2.20
2019-05-13T22:28:59.558Z,1.77
2019-05-13T22:31:27.789Z,2.40
2019-05-13T22:33:55.989Z,2.00
2019-05-13T22:36:24.241Z,2.17
2019-05-13T22:38:52.422Z,1.87
2019-05-13T22:41:22.183Z,2.03
2019-05-13T22:43:58.134Z,2.17
2019-05-13T22:46:21.385Z,1.73
2019-05-13T22:48:51.262Z,2.20
2019-05-13T22:51:21.369Z,2.23
2019-05-13T22:53:49.959Z,2.07
2019-05-13T22:56:18.292Z,2.30
2019-05-13T22:58:46.512Z,2.70
2019-05-13T23:01:14.685Z,1.60
2019-05-13T23:03:42.878Z,2.00
2019-05-13T23:06:12.079Z,1.70
2019-05-13T23:08:40.539Z,1.90
2019-05-13T23:11:08.732Z,1.87
2019-05-13T23:13:36.960Z,2.53
2019-05-13T23:16:05.177Z,2.30
2019-05-13T23:18:33.485Z,2.40
2019-05-13T23:21:02.260Z,2.60
2019-05-13T23:23:30.883Z,2.67
2019-05-13T23:25:59.275Z,2.40
2019-05-13T23:28:27.494Z,2.50
2019-05-13T23:30:55.712Z,2.77
2019-05-13T23:33:23.982Z,2.70
2019-05-13T23:35:52.198Z,2.70
2019-05-13T23:38:21.442Z,3.00
2019-05-13T23:40:51.558Z,3.10
2019-05-13T23:43:21.686Z,2.10
2019-05-13T23:45:51.149Z,2.73
2019-05-13T23:48:21.664Z,2.93
2019-05-13T23:50:51.858Z,2.53
2019-05-13T23:53:21.777Z,2.60
2019-05-13T23:55:51.827Z,2.80
2019-05-13T23:58:21.595Z,2.20
